Time;durP1;ratioP1;P1;durP2;ratioP2;P2;SDS_P1;SDS_P2;PMS_P1;PMS_P2;Temp;Humidity;BMP_temperature;BMP_pressure;BME280_temperature;BME280_humidity;BME280_pressure;Samples;Min_cycle;Max_cycle;Signal;HPM_P1;HPM_P2
2021/09/02 00:02:00;;;;;;;9.60;5.85;;;;;;;11.23;81.24;97833.72;5132020;27;20389;-61
2021/09/02 00:04:30;;;;;;;15.32;6.70;;;;;;;11.14;81.19;97830.88;5131670;27;20140;-61
2021/09/02 00:06:57;;;;;;;9.73;6.30;;;;;;;11.02;81.91;97833.91;5133212;27;20092;-61
2021/09/02 00:09:24;;;;;;;11.48;6.32;;;;;;;10.97;82.04;97831.31;5133479;27;20240;-62
2021/09/02 00:11:49;;;;;;;9.93;7.07;;;;;;;10.93;82.35;97827.63;5131739;27;20474;-61
2021/09/02 00:14:15;;;;;;;10.75;6.85;;;;;;;10.87;82.59;97828.72;5133222;27;20050;-61
2021/09/02 00:16:42;;;;;;;11.30;6.88;;;;;;;10.80;82.77;97823.75;5132945;27;20561;-61
2021/09/02 00:19:08;;;;;;;12.27;7.03;;;;;;;10.68;82.79;97810.84;5132831;27;20043;-61
2021/09/02 00:21:34;;;;;;;12.48;7.30;;;;;;;10.61;83.64;97807.72;5132909;27;20039;-62
2021/09/02 00:24:00;;;;;;;14.38;7.70;;;;;;;10.35;83.82;97795.69;5132909;27;20049;-61
2021/09/02 00:26:25;;;;;;;15.02;8.95;;;;;;;10.49;84.30;97812.56;5131806;27;20039;-61
2021/09/02 00:28:51;;;;;;;13.57;8.80;;;;;;;10.48;84.37;97807.56;5133122;27;20391;-61
2021/09/02 00:31:17;;;;;;;12.68;8.55;;;;;;;10.49;84.11;97807.25;5132761;27;20456;-62
2021/09/02 00:33:43;;;;;;;11.57;7.68;;;;;;;10.51;84.07;97814.94;5133047;27;20043;-60
2021/09/02 00:36:08;;;;;;;11.68;7.40;;;;;;;10.56;83.80;97822.84;5131641;27;20136;-61
2021/09/02 00:38:35;;;;;;;11.02;6.97;;;;;;;10.59;84.01;97817.81;5132612;27;20079;-60
2021/09/02 00:41:02;;;;;;;13.45;7.07;;;;;;;10.58;83.74;97804.81;5131340;27;20031;-61
2021/09/02 00:43:40;;;;;;;11.10;6.90;;;;;;;10.54;84.25;97803.81;5132539;27;20042;-60
2021/09/02 00:46:07;;;;;;;16.88;7.90;;;;;;;10.52;84.27;97816.53;5132786;27;20047;-61
2021/09/02 00:48:34;;;;;;;13.82;7.45;;;;;;;10.53;84.04;97816.25;5132804;27;20047;-60
2021/09/02 00:51:00;;;;;;;12.82;7.13;;;;;;;10.56;83.71;97813.06;5131572;27;20043;-60
2021/09/02 00:53:26;;;;;;;10.13;6.28;;;;;;;10.59;83.61;97817.81;5131122;27;20126;-61
2021/09/02 00:55:52;;;;;;;11.25;6.50;;;;;;;10.65;83.18;97819.34;5132718;27;20043;-61
2021/09/02 00:58:19;;;;;;;10.05;6.18;;;;;;;10.71;82.94;97811.34;5132299;27;20117;-61
2021/09/02 01:00:47;;;;;;;10.63;6.20;;;;;;;10.76;82.78;97816.63;5130880;27;20115;-62
2021/09/02 01:03:20;;;;;;;9.60;5.80;;;;;;;10.78;82.54;97811.84;5130726;28;20492;-60
2021/09/02 01:05:51;;;;;;;11.48;7.03;;;;;;;10.88;82.32;97822.34;5132599;27;20047;-62
2021/09/02 01:08:17;;;;;;;13.52;6.30;;;;;;;10.91;82.00;97816.50;5132459;27;20126;-62
2021/09/02 01:10:46;;;;;;;8.80;5.45;;;;;;;10.90;82.06;97818.34;5132254;27;20134;-62
2021/09/02 01:13:12;;;;;;;7.75;5.32;;;;;;;10.89;82.16;97816.78;5132089;27;20042;-61
2021/09/02 01:15:38;;;;;;;10.18;5.60;;;;;;;10.91;82.19;97824.44;5130972;28;20054;-62
2021/09/02 01:18:04;;;;;;;8.98;5.85;;;;;;;11.02;81.72;97817.22;5132362;27;20039;-60
2021/09/02 01:20:31;;;;;;;11.32;6.05;;;;;;;11.01;81.66;97821.72;5132107;27;20027;-61
2021/09/02 01:23:01;;;;;;;7.40;5.53;;;;;;;11.03;81.69;97819.59;5113771;28;20131;-60
2021/09/02 01:25:32;;;;;;;10.93;5.60;;;;;;;11.02;81.63;97825.16;5132303;27;20047;-61
2021/09/02 01:28:04;;;;;;;8.60;5.05;;;;;;;11.03;81.30;97832.84;5132028;27;20145;-62
2021/09/02 01:30:31;;;;;;;7.32;4.65;;;;;;;11.00;80.96;97829.94;5132075;27;20602;-61
2021/09/02 01:32:57;;;;;;;6.13;4.72;;;;;;;11.05;80.85;97836.00;5132185;27;20434;-60
2021/09/02 01:35:24;;;;;;;12.45;5.40;;;;;;;11.05;81.04;97837.88;5132397;27;20045;-61
2021/09/02 01:37:55;;;;;;;10.85;6.18;;;;;;;11.07;80.85;97841.03;5132191;27;20404;-61
2021/09/02 01:40:34;;;;;;;8.63;6.32;;;;;;;11.13;80.53;97842.59;5132463;27;20043;-61
2021/09/02 01:43:02;;;;;;;7.65;4.82;;;;;;;11.11;80.49;97845.50;5132212;27;20043;-61
2021/09/02 01:45:28;;;;;;;11.90;4.80;;;;;;;11.14;80.75;97846.81;5130418;28;20530;-61
2021/09/02 01:47:58;;;;;;;7.93;5.35;;;;;;;11.11;80.81;97850.78;5132142;27;20035;-60
2021/09/02 01:50:25;;;;;;;9.15;4.93;;;;;;;11.17;80.31;97848.13;5132304;27;20465;-61
2021/09/02 01:52:53;;;;;;;9.10;5.93;;;;;;;11.21;80.22;97849.16;5130677;28;20039;-62
2021/09/02 01:55:21;;;;;;;11.48;6.22;;;;;;;11.26;80.19;97851.75;5130526;28;20530;-61
2021/09/02 01:57:47;;;;;;;11.55;6.10;;;;;;;11.27;80.01;97856.78;5132046;27;20047;-61
2021/09/02 02:00:14;;;;;;;11.35;5.65;;;;;;;11.27;80.07;97854.13;5132246;27;20047;-61
2021/09/02 02:02:41;;;;;;;9.20;5.93;;;;;;;11.29;79.64;97854.63;5132016;27;20487;-61
2021/09/02 02:05:08;;;;;;;8.20;6.13;;;;;;;11.26;79.87;97854.41;5131498;27;20503;-61
2021/09/02 02:07:36;;;;;;;9.80;5.75;;;;;;;11.31;80.04;97857.78;5130563;28;20039;-61
2021/09/02 02:10:07;;;;;;;8.40;5.43;;;;;;;11.34;79.90;97857.22;5112530;28;20035;-60
2021/09/02 02:12:33;;;;;;;8.38;4.88;;;;;;;11.31;79.46;97857.00;5132557;27;20041;-60
2021/09/02 02:14:59;;;;;;;7.00;4.75;;;;;;;11.27;79.54;97856.00;5135869;27;20035;-60
2021/09/02 02:17:25;;;;;;;10.63;4.95;;;;;;;11.30;79.25;97858.88;5134096;27;20039;-61
2021/09/02 02:19:51;;;;;;;7.47;4.22;;;;;;;11.28;79.14;97870.81;5134284;27;20051;-61
2021/09/02 02:22:16;;;;;;;5.68;4.05;;;;;;;11.27;78.94;97863.94;5134132;27;20035;-59
2021/09/02 02:24:42;;;;;;;9.18;4.53;;;;;;;11.29;79.01;97864.44;5133966;27;20054;-61
2021/09/02 02:27:08;;;;;;;9.63;4.15;;;;;;;11.28;79.13;97874.28;5135010;27;20047;-61
2021/09/02 02:29:34;;;;;;;7.70;4.47;;;;;;;11.21;78.94;97876.47;5117059;27;20189;-60
2021/09/02 02:32:00;;;;;;;6.60;4.50;;;;;;;11.25;78.76;97871.38;5135038;27;20463;-61
2021/09/02 02:34:26;;;;;;;7.22;4.30;;;;;;;11.25;79.33;97879.34;5135330;27;20122;-61
2021/09/02 02:36:51;;;;;;;6.57;4.50;;;;;;;11.22;79.29;97875.38;5133964;27;20476;-61
2021/09/02 02:39:17;;;;;;;7.32;4.40;;;;;;;11.24;79.05;97872.47;5135157;27;20039;-61
2021/09/02 02:41:43;;;;;;;7.30;4.38;;;;;;;11.19;79.18;97872.50;5134765;27;20089;-60
2021/09/02 02:44:09;;;;;;;7.80;4.75;;;;;;;11.18;79.23;97868.25;5134943;27;20058;-61
2021/09/02 02:46:34;;;;;;;6.88;4.22;;;;;;;11.07;79.67;97856.94;5134804;27;20039;-62
2021/09/02 02:49:00;;;;;;;7.05;4.10;;;;;;;11.16;79.12;97868.53;5135076;27;20039;-61
2021/09/02 02:51:26;;;;;;;6.55;4.13;;;;;;;11.22;79.38;97866.63;5134620;27;20046;-61
2021/09/02 02:53:52;;;;;;;6.55;4.05;;;;;;;11.24;79.54;97873.25;5134702;27;20082;-61
2021/09/02 02:56:18;;;;;;;7.68;4.53;;;;;;;11.24;79.73;97873.25;5134525;27;20080;-61
2021/09/02 02:58:44;;;;;;;7.70;4.55;;;;;;;11.27;79.32;97872.69;5134883;27;20039;-62
2021/09/02 03:01:11;;;;;;;6.88;4.25;;;;;;;11.27;79.03;97875.34;5134383;27;20064;-60
2021/09/02 03:03:37;;;;;;;11.70;5.90;;;;;;;11.30;79.48;97880.09;5134114;27;20063;-62
2021/09/02 03:06:02;;;;;;;6.72;4.60;;;;;;;11.32;79.01;97877.16;5134410;27;20046;-62
2021/09/02 03:08:28;;;;;;;7.70;5.65;;;;;;;11.33;79.16;97881.41;5132935;27;20456;-62
2021/09/02 03:10:54;;;;;;;8.25;5.00;;;;;;;11.36;79.04;97883.50;5133236;27;20525;-62
2021/09/02 03:13:20;;;;;;;8.90;5.72;;;;;;;11.35;78.56;97880.06;5133029;27;20039;-61
2021/09/02 03:15:46;;;;;;;12.68;5.55;;;;;;;11.37;79.07;97883.19;5132979;27;20074;-61
2021/09/02 03:18:11;;;;;;;8.35;4.63;;;;;;;11.37;78.37;97885.06;5134185;27;20039;-61
2021/09/02 03:20:37;;;;;;;6.95;5.25;;;;;;;11.33;79.07;97887.50;5134328;27;20488;-61
2021/09/02 03:23:03;;;;;;;10.13;5.30;;;;;;;11.37;78.83;97893.03;5133828;27;20435;-61
2021/09/02 03:25:29;;;;;;;9.43;4.95;;;;;;;11.39;78.70;97890.13;5132621;27;20047;-62
2021/09/02 03:27:55;;;;;;;10.55;4.82;;;;;;;11.40;78.50;97889.81;5133056;27;20046;-61
2021/09/02 03:30:20;;;;;;;5.93;4.10;;;;;;;11.41;78.07;97896.69;5133781;27;20419;-62
2021/09/02 03:32:46;;;;;;;10.52;5.00;;;;;;;11.41;78.57;97895.91;5133804;27;20639;-62
2021/09/02 03:35:12;;;;;;;9.07;5.47;;;;;;;11.45;78.53;97897.75;5134138;27;20042;-61
2021/09/02 03:37:38;;;;;;;8.27;4.82;;;;;;;11.45;78.28;97897.75;5132538;27;20091;-61
2021/09/02 03:40:04;;;;;;;6.68;5.10;;;;;;;11.46;78.25;97903.84;5132462;27;20039;-63
2021/09/02 03:42:30;;;;;;;10.75;4.53;;;;;;;11.43;78.09;97905.19;5133811;27;20031;-61
2021/09/02 03:44:56;;;;;;;8.43;4.30;;;;;;;11.37;77.90;97896.47;5133465;27;20465;-61
2021/09/02 03:47:22;;;;;;;6.15;5.00;;;;;;;11.41;78.20;97891.38;5133745;27;20039;-62
2021/09/02 03:49:48;;;;;;;9.60;5.00;;;;;;;11.44;78.45;97893.50;5133314;27;20089;-61
2021/09/02 03:52:13;;;;;;;8.48;4.53;;;;;;;11.48;77.93;97899.03;5133282;27;20039;-60
2021/09/02 03:54:39;;;;;;;8.50;4.05;;;;;;;11.48;78.14;97888.44;5133697;27;20055;-60
2021/09/02 03:57:05;;;;;;;8.05;4.60;;;;;;;11.49;78.02;97890.78;5133618;27;20092;-60
2021/09/02 03:59:31;;;;;;;6.65;4.10;;;;;;;11.52;77.68;97894.75;5133571;27;20549;-60
2021/09/02 04:01:56;;;;;;;5.97;4.40;;;;;;;11.47;77.66;97892.97;5133422;27;20035;-61
2021/09/02 04:04:22;;;;;;;5.78;4.15;;;;;;;11.48;77.44;97891.88;5132799;27;20419;-61
2021/09/02 04:06:48;;;;;;;6.20;4.22;;;;;;;11.49;77.36;97901.41;5132726;27;20035;-62
2021/09/02 04:09:14;;;;;;;11.18;4.55;;;;;;;11.53;77.80;97898.97;5133079;27;20089;-60
2021/09/02 04:11:40;;;;;;;6.72;4.68;;;;;;;11.52;77.57;97894.75;5131655;27;20035;-61
2021/09/02 04:14:06;;;;;;;5.93;4.10;;;;;;;11.57;77.42;97895.50;5133184;27;20446;-61
2021/09/02 04:16:32;;;;;;;7.28;3.88;;;;;;;11.68;76.27;97895.41;5132870;27;20090;-61
2021/09/02 04:18:57;;;;;;;6.00;3.92;;;;;;;11.65;76.27;97902.06;5131715;27;20050;-60
2021/09/02 04:21:23;;;;;;;7.50;3.47;;;;;;;11.69;75.98;97900.44;5132765;27;20754;-61
2021/09/02 04:23:49;;;;;;;5.72;4.03;;;;;;;11.74;76.31;97908.34;5132888;27;20073;-61
2021/09/02 04:26:19;;;;;;;6.03;3.78;;;;;;;11.75;74.90;97906.47;5131501;27;20039;-60
2021/09/02 04:28:46;;;;;;;9.65;4.40;;;;;;;11.59;75.82;97882.75;5131634;27;20492;-60
2021/09/02 04:31:12;;;;;;;5.85;3.90;;;;;;;11.70;74.92;97907.31;5132667;27;20043;-62
2021/09/02 04:33:38;;;;;;;7.15;3.42;;;;;;;11.74;74.22;97913.66;5131227;27;20050;-62
2021/09/02 04:36:04;;;;;;;6.70;3.60;;;;;;;11.78;74.19;97912.00;5132392;27;20042;-62
2021/09/02 04:38:30;;;;;;;4.97;3.20;;;;;;;11.80;74.48;97906.44;5132418;27;20134;-60
2021/09/02 04:40:56;;;;;;;5.13;3.08;;;;;;;11.78;74.50;97904.06;5132853;27;20126;-64
2021/09/02 04:43:22;;;;;;;5.47;3.50;;;;;;;11.84;74.90;97915.41;5130946;27;20420;-62
2021/09/02 04:45:48;;;;;;;5.38;3.17;;;;;;;11.77;74.58;97914.97;5132582;27;20039;-63
2021/09/02 04:48:16;;;;;;;5.93;3.35;;;;;;;11.80;74.65;97925.03;5132602;27;20047;-62
2021/09/02 04:50:43;;;;;;;5.72;3.58;;;;;;;11.83;74.86;97917.28;5132237;27;20402;-62
2021/09/02 04:53:09;;;;;;;5.97;3.78;;;;;;;11.92;74.71;97917.50;5130684;27;20081;-63
2021/09/02 04:55:35;;;;;;;10.55;4.38;;;;;;;11.99;74.50;97911.84;5130764;27;20038;-61
2021/09/02 04:58:05;;;;;;;4.65;3.42;;;;;;;12.01;74.89;97915.78;5131258;27;20500;-62
2021/09/02 05:00:32;;;;;;;4.95;3.20;;;;;;;12.10;74.60;97918.63;5131167;27;20051;-62
2021/09/02 05:02:58;;;;;;;7.70;3.22;;;;;;;12.11;74.49;97909.56;5131906;27;20043;-64
2021/09/02 05:05:24;;;;;;;5.20;3.33;;;;;;;12.11;74.01;97917.53;5131765;27;20116;-62
2021/09/02 05:07:50;;;;;;;6.72;2.97;;;;;;;12.23;73.19;97914.47;5130731;27;20035;-60
2021/09/02 05:10:16;;;;;;;7.60;3.00;;;;;;;12.34;72.60;97920.47;5125374;27;20043;-61
2021/09/02 05:12:42;;;;;;;2.85;2.33;;;;;;;12.23;71.35;97920.56;5125461;28;20050;-62
2021/09/02 05:15:08;;;;;;;5.05;2.47;;;;;;;12.28;71.43;97928.50;5112822;28;20070;-62
2021/09/02 05:17:33;;;;;;;4.30;2.83;;;;;;;12.28;71.52;97923.19;5130743;27;20027;-62
2021/09/02 05:19:59;;;;;;;4.88;2.95;;;;;;;12.24;71.73;97916.09;5130430;27;20047;-62
2021/09/02 05:22:25;;;;;;;3.95;2.50;;;;;;;12.23;72.30;97933.88;5130460;27;20047;-62
2021/09/02 05:24:51;;;;;;;5.22;2.65;;;;;;;12.23;71.64;97931.22;5128429;28;20072;-61
2021/09/02 05:27:17;;;;;;;4.35;2.40;;;;;;;12.24;72.50;97935.47;5127228;27;20042;-62
2021/09/02 05:29:43;;;;;;;4.63;2.70;;;;;;;12.28;71.85;97936.47;5126971;28;20495;-63
2021/09/02 05:32:09;;;;;;;3.67;2.22;;;;;;;12.28;71.74;97935.69;5127530;27;20035;-62
2021/09/02 05:34:34;;;;;;;4.03;2.53;;;;;;;12.36;71.56;97943.03;5091416;28;20043;-62
2021/09/02 05:37:00;;;;;;;3.47;2.42;;;;;;;12.47;71.65;97955.13;5127576;27;20039;-62
2021/09/02 05:39:26;;;;;;;2.85;2.15;;;;;;;12.46;71.34;97948.22;5126371;28;20146;-60
2021/09/02 05:41:52;;;;;;;3.97;2.40;;;;;;;12.39;71.80;97944.34;5128100;27;20043;-63
2021/09/02 05:44:17;;;;;;;6.18;2.50;;;;;;;12.32;72.40;97938.56;5129093;27;20035;-62
2021/09/02 05:46:43;;;;;;;6.22;2.80;;;;;;;12.39;72.64;97936.38;5131007;27;20549;-61
2021/09/02 05:49:09;;;;;;;3.20;2.30;;;;;;;12.48;71.53;97951.38;5130617;27;20082;-62
2021/09/02 05:51:35;;;;;;;3.72;2.53;;;;;;;12.52;72.23;97942.84;5132142;27;20050;-62
2021/09/02 05:54:01;;;;;;;4.78;2.92;;;;;;;12.65;71.95;97947.47;5133604;27;20082;-62
2021/09/02 05:56:26;;;;;;;3.67;2.40;;;;;;;12.74;70.42;97951.06;5130983;27;20043;-63
2021/09/02 05:58:52;;;;;;;4.18;2.60;;;;;;;12.76;70.85;97950.78;5131234;27;20119;-65
2021/09/02 06:01:18;;;;;;;3.55;2.45;;;;;;;12.79;71.63;97950.19;5132241;27;20050;-63
2021/09/02 06:03:44;;;;;;;6.10;2.83;;;;;;;12.98;70.86;97951.00;5132943;27;20287;-61
2021/09/02 06:06:10;;;;;;;5.93;3.05;;;;;;;13.01;70.19;97955.75;5131014;27;20039;-61
2021/09/02 06:08:36;;;;;;;6.32;2.70;;;;;;;13.13;69.58;97964.09;5130987;27;20054;-62
2021/09/02 06:11:03;;;;;;;3.08;2.75;;;;;;;13.00;69.84;97959.50;5130314;27;20421;-62
2021/09/02 06:13:33;;;;;;;3.28;2.58;;;;;;;12.95;68.81;97963.00;5131592;27;20043;-66
2021/09/02 06:15:59;;;;;;;5.90;3.65;;;;;;;12.92;69.68;97954.81;5131013;27;20119;-63
2021/09/02 06:18:25;;;;;;;4.65;3.03;;;;;;;13.08;69.09;97974.00;5131418;27;20071;-64
2021/09/02 06:20:51;;;;;;;4.53;3.08;;;;;;;12.99;69.13;97973.84;5132563;27;20129;-65
2021/09/02 06:23:17;;;;;;;5.03;2.70;;;;;;;13.04;69.36;97975.66;5134218;27;20088;-62
2021/09/02 06:25:42;;;;;;;4.13;2.75;;;;;;;13.15;69.32;97983.22;5114093;27;20503;-63
2021/09/02 06:28:08;;;;;;;6.47;2.58;;;;;;;13.14;69.14;97988.81;5130669;27;20046;-62
2021/09/02 06:30:34;;;;;;;5.32;2.50;;;;;;;13.26;68.17;97983.88;5131693;27;20138;-64
2021/09/02 06:33:00;;;;;;;3.38;2.40;;;;;;;13.32;66.00;97987.25;5131191;27;20042;-64
2021/09/02 06:35:26;;;;;;;6.30;2.30;;;;;;;13.39;66.58;97991.13;5112925;27;20047;-64
2021/09/02 06:37:52;;;;;;;3.17;2.42;;;;;;;13.40;66.56;97989.25;5131459;27;20131;-62
2021/09/02 06:40:18;;;;;;;3.35;2.38;;;;;;;13.44;66.41;97994.78;5128845;27;20130;-62
2021/09/02 06:42:43;;;;;;;6.65;2.72;;;;;;;13.57;66.02;98000.19;5131237;27;20063;-63
2021/09/02 06:45:10;;;;;;;5.63;2.70;;;;;;;13.60;67.14;97996.94;5132279;27;20043;-63
2021/09/02 06:47:39;;;;;;;7.63;3.05;;;;;;;13.73;66.75;97997.25;5131106;27;20086;-63
2021/09/02 06:50:10;;;;;;;4.03;2.97;;;;;;;13.83;67.15;97992.56;5131242;27;20064;-65
2021/09/02 06:52:36;;;;;;;4.97;3.95;;;;;;;13.97;66.99;97989.94;5132327;27;20100;-63
2021/09/02 06:55:03;;;;;;;7.80;3.85;;;;;;;14.05;66.35;97999.13;5130711;27;20512;-62
2021/09/02 06:57:29;;;;;;;8.07;3.25;;;;;;;14.07;65.83;98004.94;5131662;27;20035;-63
2021/09/02 06:59:55;;;;;;;4.53;3.03;;;;;;;14.08;65.54;98006.53;5113864;27;20039;-63
2021/09/02 07:02:22;;;;;;;3.80;3.17;;;;;;;14.09;66.57;98008.91;5132003;27;20046;-63
2021/09/02 07:04:47;;;;;;;4.68;2.95;;;;;;;14.08;65.67;98009.19;5132767;27;20059;-61
2021/09/02 07:07:13;;;;;;;5.25;3.13;;;;;;;14.03;66.35;98011.94;5132356;27;20580;-64
2021/09/02 07:09:39;;;;;;;4.03;2.70;;;;;;;14.02;65.76;98005.03;5132148;27;20047;-64
2021/09/02 07:12:05;;;;;;;2.88;2.30;;;;;;;14.27;64.86;98001.91;5131181;27;20411;-63
2021/09/02 07:14:31;;;;;;;4.05;2.60;;;;;;;14.37;63.59;98005.47;5112247;27;20105;-62
2021/09/02 07:16:57;;;;;;;3.83;2.90;;;;;;;14.45;63.41;98012.78;5111831;28;20035;-62
2021/09/02 07:19:23;;;;;;;5.78;2.70;;;;;;;14.38;63.43;98009.72;5109740;28;20508;-61
2021/09/02 07:21:49;;;;;;;5.43;3.03;;;;;;;14.28;65.01;98006.16;5111379;28;20557;-62
2021/09/02 07:24:15;;;;;;;5.22;3.55;;;;;;;14.56;63.83;98011.53;5108704;28;20035;-62
2021/09/02 07:26:41;;;;;;;6.45;3.03;;;;;;;14.71;63.00;98013.13;5110135;28;20035;-61
2021/09/02 07:29:08;;;;;;;4.25;3.13;;;;;;;14.97;62.03;98008.81;5108195;28;20420;-61
2021/09/02 07:31:35;;;;;;;4.30;3.20;;;;;;;14.81;61.27;98020.91;5109620;28;20036;-62
2021/09/02 07:34:01;;;;;;;3.90;2.70;;;;;;;14.76;61.02;98019.13;5110594;28;20526;-62
2021/09/02 07:36:27;;;;;;;7.30;2.90;;;;;;;14.89;62.06;98028.19;5108982;28;20145;-63
2021/09/02 07:38:53;;;;;;;5.55;3.40;;;;;;;15.02;60.15;98026.59;5111082;28;20407;-61
2021/09/02 07:41:19;;;;;;;4.18;2.60;;;;;;;15.08;59.73;98025.41;5109389;28;20032;-61
2021/09/02 07:43:45;;;;;;;3.35;2.47;;;;;;;15.04;59.61;98024.41;5111074;28;20043;-61
2021/09/02 07:46:11;;;;;;;6.32;3.17;;;;;;;14.92;60.58;98026.81;5109124;28;20039;-64
2021/09/02 07:48:37;;;;;;;5.00;2.90;;;;;;;14.65;61.16;98022.31;5109524;28;20040;-62
2021/09/02 07:51:03;;;;;;;5.53;3.25;;;;;;;14.63;61.60;98022.59;5110411;28;20389;-64
2021/09/02 07:53:30;;;;;;;4.07;2.70;;;;;;;14.71;59.77;98024.56;5110070;28;20040;-63
2021/09/02 07:55:56;;;;;;;3.53;2.53;;;;;;;14.69;59.30;98026.72;5107203;28;20070;-63
2021/09/02 07:58:22;;;;;;;3.97;2.90;;;;;;;14.76;59.04;98021.00;5109344;28;20082;-62
2021/09/02 08:00:48;;;;;;;5.13;3.35;;;;;;;14.86;59.68;98015.47;5108787;28;20059;-63
2021/09/02 08:03:14;;;;;;;5.10;3.30;;;;;;;14.87;60.48;98021.59;5109094;28;20058;-62
2021/09/02 08:05:40;;;;;;;6.60;3.35;;;;;;;14.89;59.76;98035.41;5106661;28;20055;-63
2021/09/02 08:08:06;;;;;;;3.78;2.95;;;;;;;14.86;59.84;98025.34;5108731;28;20053;-63
2021/09/02 08:10:32;;;;;;;4.22;2.47;;;;;;;14.88;58.78;98017.81;5089860;28;20122;-64
2021/09/02 08:12:58;;;;;;;4.78;3.03;;;;;;;15.05;58.25;98018.00;5111391;28;20686;-64
2021/09/02 08:15:24;;;;;;;3.88;3.03;;;;;;;15.17;58.77;98031.59;5110634;28;20488;-64
2021/09/02 08:17:51;;;;;;;7.53;2.80;;;;;;;15.22;57.85;98022.69;5107980;28;20078;-64
2021/09/02 08:20:18;;;;;;;2.90;2.30;;;;;;;15.04;56.83;98015.63;5109605;28;20052;-66
2021/09/02 08:22:44;;;;;;;4.43;2.58;;;;;;;14.92;57.70;98029.50;5109931;28;20043;-62
2021/09/02 08:25:11;;;;;;;3.88;2.42;;;;;;;14.66;58.75;98026.53;5107003;28;20047;-64
2021/09/02 08:27:38;;;;;;;8.18;2.60;;;;;;;14.88;57.57;98023.16;5109741;28;20472;-65
2021/09/02 08:30:05;;;;;;;3.05;2.08;;;;;;;15.07;56.40;98015.03;5108148;28;20050;-65
2021/09/02 08:32:31;;;;;;;4.18;2.53;;;;;;;15.04;56.79;98004.97;5107071;28;20467;-64
2021/09/02 08:34:57;;;;;;;3.35;2.53;;;;;;;15.31;56.17;98023.56;5109862;28;20130;-63
2021/09/02 08:37:22;;;;;;;5.18;2.75;;;;;;;15.51;57.11;98019.66;5088974;28;20047;-62
2021/09/02 08:39:50;;;;;;;2.83;2.50;;;;;;;15.92;57.34;98020.59;5106693;28;20044;-64
2021/09/02 08:42:16;;;;;;;6.05;2.80;;;;;;;16.04;54.48;98010.91;5106777;28;20047;-64
2021/09/02 08:44:43;;;;;;;3.50;2.05;;;;;;;16.06;53.93;98014.06;5109014;28;20051;-63
2021/09/02 08:47:10;;;;;;;4.10;2.33;;;;;;;16.04;54.07;98016.25;5108178;28;20035;-64
2021/09/02 08:49:35;;;;;;;3.83;2.63;;;;;;;15.94;53.80;98021.81;5106324;28;20515;-65
2021/09/02 08:52:02;;;;;;;2.97;2.10;;;;;;;16.09;53.84;98020.69;5106369;28;20044;-63
2021/09/02 08:54:28;;;;;;;3.17;2.60;;;;;;;16.01;54.66;98016.06;5107177;28;20493;-65
2021/09/02 08:56:54;;;;;;;3.75;2.13;;;;;;;15.77;54.61;98019.06;5107890;28;20046;-69
2021/09/02 08:59:21;;;;;;;3.63;2.42;;;;;;;15.67;56.12;98015.53;5106916;28;20039;-64
2021/09/02 09:01:48;;;;;;;4.53;2.63;;;;;;;15.59;55.53;98029.59;5105646;28;20133;-63
2021/09/02 09:04:15;;;;;;;2.40;2.03;;;;;;;15.48;55.43;98020.25;5106276;27;20051;-67
2021/09/02 09:06:42;;;;;;;3.75;2.38;;;;;;;15.29;55.41;98028.41;5106650;28;20077;-63
2021/09/02 09:09:14;;;;;;;4.38;2.55;;;;;;;15.29;56.06;98031.06;5105798;28;20531;-62
2021/09/02 09:11:49;;;;;;;2.60;2.30;;;;;;;15.47;55.08;98018.69;5107371;28;20044;-63
2021/09/02 09:14:22;;;;;;;2.92;2.40;;;;;;;15.69;55.43;98019.81;5109246;28;20412;-62
2021/09/02 09:16:55;;;;;;;4.90;2.60;;;;;;;15.89;54.52;98017.41;5107782;28;20093;-61
2021/09/02 09:19:53;;;;;;;4.55;2.60;;;;;;;15.76;54.13;98018.25;5110416;28;20054;-60
2021/09/02 09:22:28;;;;;;;3.13;2.50;;;;;;;15.56;54.96;98016.03;5096363;28;20071;-63
2021/09/02 09:24:59;;;;;;;5.33;3.17;;;;;;;15.36;57.15;98022.66;5112230;28;20043;-62
2021/09/02 09:27:38;;;;;;;4.18;2.75;;;;;;;15.25;57.09;98024.78;5112449;28;20559;-61
2021/09/02 09:30:10;;;;;;;3.28;2.95;;;;;;;15.26;57.30;98020.22;5112433;28;20047;-63
2021/09/02 09:32:47;;;;;;;3.08;2.78;;;;;;;15.10;57.21;98012.56;5111402;28;20044;-61
2021/09/02 09:35:42;;;;;;;3.30;2.33;;;;;;;15.09;57.04;98010.97;5107956;28;20065;-61
2021/09/02 09:38:18;;;;;;;4.75;2.55;;;;;;;15.17;56.92;97996.13;5111913;28;20048;-61
2021/09/02 09:40:46;;;;;;;3.70;2.85;;;;;;;15.19;55.84;98009.97;5112494;28;20038;-61
2021/09/02 09:43:13;;;;;;;5.53;2.40;;;;;;;15.44;56.58;98011.25;5112388;28;20505;-62
2021/09/02 09:45:42;;;;;;;4.88;2.20;;;;;;;15.57;53.92;98012.31;5131532;27;20130;-62
2021/09/02 09:48:37;;;;;;;3.00;2.22;;;;;;;15.43;54.61;98007.78;5132415;27;20046;-62
2021/09/02 09:51:09;;;;;;;2.80;1.75;;;;;;;15.26;53.30;98012.22;5132481;27;20107;-62
2021/09/02 09:53:36;;;;;;;3.25;2.55;;;;;;;15.19;55.28;98008.06;5133011;27;20495;-61
2021/09/02 09:56:03;;;;;;;3.30;2.20;;;;;;;15.05;57.78;98019.88;5133965;27;20050;-62
2021/09/02 09:58:29;;;;;;;2.20;1.88;;;;;;;15.04;57.49;98010.28;5131822;27;20080;-63
2021/09/02 10:00:57;;;;;;;3.20;1.80;;;;;;;14.91;56.62;98019.88;5133174;27;20399;-63
2021/09/02 10:03:23;;;;;;;3.47;1.73;;;;;;;14.90;56.68;98016.44;5129427;27;20051;-63
2021/09/02 10:05:49;;;;;;;2.30;2.10;;;;;;;14.95;59.50;98028.88;5113490;27;20088;-64
2021/09/02 10:08:16;;;;;;;2.25;1.45;;;;;;;14.90;53.98;98023.66;5133128;27;20039;-63
2021/09/02 10:10:42;;;;;;;3.15;1.73;;;;;;;14.95;51.63;98036.91;5131167;27;20402;-63
2021/09/02 10:13:08;;;;;;;1.50;1.40;;;;;;;14.83;53.38;98041.94;5132709;27;20050;-62
2021/09/02 10:15:34;;;;;;;2.03;1.77;;;;;;;14.81;54.49;98036.91;5124525;27;20039;-62
2021/09/02 10:18:02;;;;;;;4.20;1.70;;;;;;;14.63;55.04;98035.13;5110600;28;20054;-62
2021/09/02 10:20:31;;;;;;;1.95;1.60;;;;;;;14.72;56.07;98036.03;5110237;28;20044;-62
2021/09/02 10:22:58;;;;;;;6.40;2.20;;;;;;;14.82;55.26;98035.00;5112169;28;20049;-63
2021/09/02 10:25:31;;;;;;;2.67;2.30;;;;;;;14.88;53.19;98036.50;5112347;28;20450;-63
2021/09/02 10:28:11;;;;;;;4.03;2.40;;;;;;;14.94;52.66;98030.78;5112600;28;20039;-61
2021/09/02 10:30:44;;;;;;;;;;;;;;;14.85;53.52;98039.75;5112277;28;20139;-62
2021/09/02 10:33:40;;;;;;;4.97;3.20;;;;;;;14.85;54.49;98042.41;5111600;28;19926;-62
2021/09/02 10:36:15;;;;;;;6.00;4.20;;;;;;;14.83;55.50;98044.63;5109560;28;20052;-62
2021/09/02 10:38:45;;;;;;;4.15;3.00;;;;;;;15.01;55.50;98038.38;5111728;28;20445;-61
2021/09/02 10:41:12;;;;;;;5.32;3.42;;;;;;;15.22;55.01;98036.84;5110776;28;20587;-63
2021/09/02 10:43:46;;;;;;;3.88;2.70;;;;;;;15.46;54.66;98038.44;5125010;27;20076;-62
2021/09/02 10:46:27;;;;;;;3.33;2.47;;;;;;;15.63;51.81;98049.25;5132893;27;20081;-62
2021/09/02 10:48:53;;;;;;;3.35;2.70;;;;;;;15.69;52.21;98044.63;5131903;27;20123;-62
2021/09/02 10:51:35;;;;;;;5.95;3.10;;;;;;;15.93;55.22;98059.56;5129779;27;20039;-63
2021/09/02 10:54:06;;;;;;;2.50;2.08;;;;;;;15.98;48.92;98057.56;5130614;27;20043;-64
2021/09/02 10:56:51;;;;;;;2.78;2.15;;;;;;;15.80;51.50;98066.56;5131888;27;20119;-62
2021/09/02 10:59:43;;;;;;;5.32;2.50;;;;;;;15.86;53.13;98090.19;5132073;27;20055;-64
2021/09/02 11:02:28;;;;;;;2.88;1.67;;;;;;;15.59;48.22;98075.00;5128872;27;20130;-64
2021/09/02 11:05:03;;;;;;;2.15;1.50;;;;;;;15.38;50.61;98076.53;5129977;27;20105;-62
2021/09/02 11:07:45;;;;;;;2.00;1.63;;;;;;;15.38;50.24;98072.00;5111700;27;20612;-64
2021/09/02 11:10:16;;;;;;;2.60;1.98;;;;;;;15.30;51.86;98080.72;5131608;27;20043;-63
2021/09/02 11:12:42;;;;;;;2.58;1.90;;;;;;;15.08;52.91;98086.78;5130515;27;20039;-63
2021/09/02 11:15:09;;;;;;;3.65;1.70;;;;;;;15.09;52.74;98077.69;5128997;27;20514;-63
2021/09/02 11:17:36;;;;;;;2.80;1.80;;;;;;;15.26;53.87;98073.59;5130266;27;20567;-63
2021/09/02 11:20:18;;;;;;;2.58;1.92;;;;;;;15.43;53.80;98076.44;5111544;27;20446;-63
2021/09/02 11:22:44;;;;;;;4.47;1.77;;;;;;;15.52;53.10;98076.50;5132506;27;20515;-62
2021/09/02 11:25:10;;;;;;;2.78;1.90;;;;;;;15.54;54.55;98069.78;5131224;27;20051;-63
2021/09/02 11:27:36;;;;;;;2.35;1.83;;;;;;;15.49;55.24;98075.22;5130194;27;20049;-62
2021/09/02 11:30:33;;;;;;;3.15;1.70;;;;;;;15.40;52.76;98075.16;5130589;27;20614;-61
2021/09/02 11:33:01;;;;;;;3.90;1.63;;;;;;;15.17;50.96;98078.84;5132559;27;20049;-65
2021/09/02 11:35:27;;;;;;;1.73;1.35;;;;;;;15.01;50.54;98080.28;5130401;27;20504;-64